Jackson Hole Airport
KJAC : now visible

Airfield :











YOU CAN JOIN US ON...

 
LOGIN :

Register | Disclaimer

   EN    FR    IT 

 









Legend :    VFR   Marginal VFR   IFR   Intensive IFR   Very Intensive IFR
Visi :
Ceiling :
>= 8 km
>= 3000ft
5 to 8 km
1000 to 3000 ft
1500m to 5 km
500 to 1000 ft
800 to 1500m
200 to 500 ft
< 800m
< 200 ft
Symbols :   Thunderstorms  Fog  Heavy snow  Heavy precipitations  Wind > 20 kt






- Airport Elevation : 6451 ft
- IATA code : JAC


KJAC - Jackson Hole

CURRENT METAR :
  • 282146Z 22011KT 10SM -SN FEW027 OVC040 M02/M07 A3008 RMK AO2 UPB26E27SNE26B29 P0000

EXPIRED METARs :
  • 282056Z 22009KT 4SM -SN OVC025 M02/M08 A3010 RMK AO2 SLP250 P0000 60000 T10221083 58013
  • 281956Z 21012KT 7SM -SN FEW018 OVC025 M03/M09 A3012 RMK AO2 SNE00B17 SLP262 P0000 T10281089
  • 281856Z 21012KT 9SM -SN OVC027 M04/M09 A3014 RMK AO2 SNB25 SLP271 P0000 T10391094
  • 281823Z 21014KT 10SM OVC029 M04/M09 A3014 RMK AO2
  • 281756Z 21014KT 9SM OVC031 M04/M09 A3014 RMK AO2 SNB08E52 SLP273 P0000 60000 T10441094 11044 21089 51008
  • 281723Z 21014KT 9SM -SN OVC031 M05/M10 A3014 RMK AO2 SNB08 P0000
  • 281706Z 21014KT 10SM BKN027 OVC033 M06/M10 A3014 RMK AO2

TAF KJAC
Valid from the 28 at 21:00 until the 29 at 18:00 UTC


282034Z 2821/2918 22012G20KT P6SM VCSH SCT025 OVC035
TEMPO 2821/2823 6SM -SN SCT015 OVC025
FM282300 22009KT P6SM BKN035 OVC060
FM291600 22009KT P6SM VCSH SCT035 OVC060
KZLC FIR / North America



MET'MAP, your aeronautical weather chart ! - Copyright ORBIFLY December 2007 - Disclaimer

ORBIFLY MET'MAP TEAM :

Programming & Development : Alexandra Zaïnal
Original concept : Baudouin d'Aumeries
Technical & hardware support : Manuel Goepfert
Assistance : Marc-Olivier Méhu




SOURCES & CREDITS :

   NOAA       Earth
Advisory